Time;durP1;ratioP1;P1;durP2;ratioP2;P2;SDS_P1;SDS_P2;PMS_P1;PMS_P2;Temp;Humidity;BMP_temperature;BMP_pressure;BME280_temperature;BME280_humidity;BME280_pressure;Samples;Min_cycle;Max_cycle;Signal;HPM_P1;HPM_P2
2021/05/30 00:02:27;;;;;;;6.82;3.60;;;;;;;;;;6206930;28;21794;-65
2021/05/30 00:05:29;;;;;;;4.05;3.58;;;;;;;;;;6209950;28;20069;-67
2021/05/30 00:08:30;;;;;;;4.97;3.72;;;;;;;;;;6201305;28;20129;-65
2021/05/30 00:11:33;;;;;;;4.70;3.85;;;;;;;;;;6209413;28;20113;-65
2021/05/30 00:14:34;;;;;;;5.55;4.03;;;;;;;;;;6204725;28;20121;-70
2021/05/30 00:17:35;;;;;;;5.75;3.80;;;;;;;;;;6208356;28;20141;-69
2021/05/30 00:20:36;;;;;;;5.68;4.03;;;;;;;;;;6213801;28;20133;-65
2021/05/30 00:23:37;;;;;;;4.47;3.97;;;;;;;;;;6206399;28;20096;-67
2021/05/30 00:26:39;;;;;;;6.03;3.90;;;;;;;;;;6207199;28;20060;-74
2021/05/30 00:29:40;;;;;;;4.65;3.90;;;;;;;;;;6200855;28;20137;-66
2021/05/30 00:32:41;;;;;;;5.13;4.10;;;;;;;;;;6207450;28;20072;-68
2021/05/30 00:35:43;;;;;;;6.47;4.00;;;;;;;;;;6207584;28;20065;-72
2021/05/30 00:38:44;;;;;;;4.22;3.70;;;;;;;;;;6208668;28;20049;-66
2021/05/30 00:41:46;;;;;;;4.10;3.70;;;;;;;;;;6212924;28;20060;-65
2021/05/30 00:44:47;;;;;;;5.70;4.00;;;;;;;;;;6213479;28;20056;-71
2021/05/30 00:47:48;;;;;;;8.98;4.53;;;;;;;;;;6191725;28;20137;-67
2021/05/30 00:50:49;;;;;;;6.57;3.88;;;;;;;;;;6186151;28;20148;-67
2021/05/30 00:53:50;;;;;;;8.63;4.43;;;;;;;;;;6208838;28;20081;-66
2021/05/30 00:56:52;;;;;;;6.95;3.97;;;;;;;;;;6212485;28;20042;-68
2021/05/30 00:59:54;;;;;;;5.65;3.83;;;;;;;;;;6202077;28;20038;-66
2021/05/30 01:02:55;;;;;;;4.30;3.63;;;;;;;;;;6211005;28;20134;-66
2021/05/30 01:05:56;;;;;;;6.28;4.10;;;;;;;;;;6211865;28;20226;-66
2021/05/30 01:08:59;;;;;;;5.55;3.85;;;;;;;;;;6216400;28;20121;-66
2021/05/30 01:12:02;;;;;;;4.40;3.53;;;;;;;;;;6209206;28;20136;-67
2021/05/30 01:15:04;;;;;;;5.22;3.42;;;;;;;;;;6217682;28;20132;-67
2021/05/30 01:18:06;;;;;;;8.55;3.55;;;;;;;;;;6215252;28;20053;-65
2021/05/30 01:21:07;;;;;;;7.43;4.05;;;;;;;;;;6216063;28;20053;-66
2021/05/30 01:24:09;;;;;;;6.05;3.50;;;;;;;;;;6213249;28;20132;-68
2021/05/30 01:27:10;;;;;;;6.82;3.75;;;;;;;;;;6210330;28;20057;-66
2021/05/30 01:30:12;;;;;;;5.82;3.88;;;;;;;;;;6209191;28;20169;-65
2021/05/30 01:33:13;;;;;;;6.10;3.90;;;;;;;;;;6211846;28;20680;-67
2021/05/30 01:36:15;;;;;;;4.68;3.45;;;;;;;;;;6209743;28;20126;-65
2021/05/30 01:39:17;;;;;;;6.10;3.75;;;;;;;;;;6216697;28;20137;-68
2021/05/30 01:42:20;;;;;;;6.82;3.53;;;;;;;;;;6218161;28;20125;-65
2021/05/30 01:45:22;;;;;;;3.95;3.40;;;;;;;;;;6207303;28;20683;-68
2021/05/30 01:48:24;;;;;;;9.18;3.80;;;;;;;;;;6211679;28;20052;-69
2021/05/30 01:51:25;;;;;;;5.43;3.90;;;;;;;;;;6214621;28;20486;-67
2021/05/30 01:54:28;;;;;;;5.65;3.95;;;;;;;;;;6210320;28;20145;-68
2021/05/30 01:57:30;;;;;;;4.88;3.63;;;;;;;;;;6215111;28;20049;-67
2021/05/30 02:00:31;;;;;;;4.65;3.85;;;;;;;;;;6209235;28;20136;-66
2021/05/30 02:03:32;;;;;;;4.75;3.70;;;;;;;;;;6200476;28;20547;-68
2021/05/30 02:06:34;;;;;;;4.95;3.90;;;;;;;;;;6204616;28;20664;-67
2021/05/30 02:09:37;;;;;;;8.25;4.18;;;;;;;;;;6214418;28;20457;-65
2021/05/30 02:12:39;;;;;;;6.43;3.92;;;;;;;;;;6209454;28;20501;-66
2021/05/30 02:15:41;;;;;;;5.10;3.40;;;;;;;;;;6217017;28;20397;-66
2021/05/30 02:18:42;;;;;;;5.00;4.15;;;;;;;;;;6220592;28;20069;-66
2021/05/30 02:21:44;;;;;;;4.95;4.15;;;;;;;;;;6218811;28;20790;-75
2021/05/30 02:24:46;;;;;;;7.72;3.92;;;;;;;;;;6209580;28;20073;-69
2021/05/30 02:27:47;;;;;;;6.68;3.75;;;;;;;;;;6187537;28;20108;-67
2021/05/30 02:30:49;;;;;;;5.40;3.95;;;;;;;;;;6200026;28;20133;-67
2021/05/30 02:33:50;;;;;;;8.00;3.88;;;;;;;;;;6218157;28;20057;-69
2021/05/30 02:36:51;;;;;;;4.05;3.65;;;;;;;;;;6208201;28;20049;-66
2021/05/30 02:39:53;;;;;;;5.45;4.30;;;;;;;;;;6209014;28;20138;-68
2021/05/30 02:42:54;;;;;;;4.95;3.97;;;;;;;;;;6199547;28;20137;-68
2021/05/30 02:45:55;;;;;;;4.50;3.53;;;;;;;;;;6209123;28;20067;-67
2021/05/30 02:48:56;;;;;;;4.43;3.70;;;;;;;;;;6224315;28;20080;-69
2021/05/30 02:51:57;;;;;;;5.75;3.42;;;;;;;;;;6223327;28;20077;-66
2021/05/30 02:54:59;;;;;;;4.80;3.17;;;;;;;;;;6211816;28;20116;-66
2021/05/30 02:58:00;;;;;;;6.03;3.38;;;;;;;;;;6221011;28;20073;-66
2021/05/30 03:01:01;;;;;;;5.47;3.47;;;;;;;;;;6218594;28;20050;-66
2021/05/30 03:04:03;;;;;;;4.63;3.28;;;;;;;;;;6220813;28;20663;-66
2021/05/30 03:07:04;;;;;;;4.78;3.70;;;;;;;;;;6207751;28;20565;-67
2021/05/30 03:10:07;;;;;;;6.15;3.70;;;;;;;;;;6215078;28;20045;-68
2021/05/30 03:13:09;;;;;;;4.72;3.58;;;;;;;;;;6208440;28;20053;-66
2021/05/30 03:16:10;;;;;;;4.70;3.47;;;;;;;;;;6217692;28;20053;-69
2021/05/30 03:19:11;;;;;;;4.53;3.35;;;;;;;;;;6216291;28;20515;-68
2021/05/30 03:22:12;;;;;;;5.00;3.97;;;;;;;;;;6216896;28;20121;-66
2021/05/30 03:25:15;;;;;;;5.82;3.33;;;;;;;;;;6215312;28;20707;-68
2021/05/30 03:28:16;;;;;;;4.93;3.67;;;;;;;;;;6210132;28;20146;-67
2021/05/30 03:31:17;;;;;;;4.78;4.05;;;;;;;;;;6223859;28;20081;-67
2021/05/30 03:34:18;;;;;;;4.47;3.40;;;;;;;;;;6216997;28;20155;-70
2021/05/30 03:37:19;;;;;;;4.65;3.90;;;;;;;;;;6220036;28;20144;-69
2021/05/30 03:40:29;;;;;;;6.18;4.15;;;;;;;;;;6215547;28;20047;-66
2021/05/30 03:43:30;;;;;;;5.82;3.58;;;;;;;;;;6215927;28;20056;-68
2021/05/30 03:46:31;;;;;;;6.35;4.45;;;;;;;;;;6219520;28;20054;-68
2021/05/30 03:49:32;;;;;;;7.30;4.45;;;;;;;;;;6220999;28;20107;-65
2021/05/30 03:52:33;;;;;;;4.72;4.10;;;;;;;;;;6222280;28;20532;-67
2021/05/30 03:55:35;;;;;;;4.72;4.20;;;;;;;;;;6210435;28;20505;-66
2021/05/30 03:58:36;;;;;;;4.60;4.03;;;;;;;;;;6216286;28;20524;-67
2021/05/30 04:01:38;;;;;;;5.18;4.05;;;;;;;;;;6208988;28;20141;-66
2021/05/30 04:04:39;;;;;;;6.10;4.20;;;;;;;;;;6212974;28;20456;-67
2021/05/30 04:07:40;;;;;;;5.80;3.70;;;;;;;;;;6215048;28;21709;-68
2021/05/30 04:10:44;;;;;;;4.47;3.65;;;;;;;;;;6217111;28;20099;-66
2021/05/30 04:13:45;;;;;;;4.68;3.72;;;;;;;;;;6203908;28;20413;-66
2021/05/30 04:16:46;;;;;;;5.30;3.58;;;;;;;;;;6215920;28;20050;-66
2021/05/30 04:19:47;;;;;;;5.18;3.75;;;;;;;;;;6209392;28;20133;-66
2021/05/30 04:22:49;;;;;;;6.72;3.83;;;;;;;;;;6219621;28;20603;-66
2021/05/30 04:25:51;;;;;;;5.03;3.72;;;;;;;;;;6218219;28;20099;-66
2021/05/30 04:28:52;;;;;;;5.82;3.85;;;;;;;;;;6212228;28;20136;-66
2021/05/30 04:31:54;;;;;;;4.68;4.00;;;;;;;;;;6217103;28;20091;-71
2021/05/30 04:34:55;;;;;;;3.90;3.38;;;;;;;;;;6216227;28;20129;-70
2021/05/30 04:37:56;;;;;;;3.97;3.47;;;;;;;;;;6216062;28;20064;-70
2021/05/30 04:41:00;;;;;;;4.68;3.53;;;;;;;;;;6216726;28;20137;-66
2021/05/30 04:44:01;;;;;;;6.13;3.50;;;;;;;;;;6211828;28;20710;-67
2021/05/30 04:47:02;;;;;;;4.25;3.30;;;;;;;;;;6220480;28;20092;-66
2021/05/30 04:50:04;;;;;;;6.90;3.47;;;;;;;;;;6221665;28;20121;-66
2021/05/30 04:53:05;;;;;;;4.97;3.60;;;;;;;;;;6216299;28;20508;-70
2021/05/30 04:56:09;;;;;;;4.65;3.67;;;;;;;;;;6225695;28;20103;-67
2021/05/30 04:59:10;;;;;;;4.55;2.88;;;;;;;;;;6212262;28;20539;-67
2021/05/30 05:02:11;;;;;;;5.47;3.30;;;;;;;;;;6216037;28;20573;-71
2021/05/30 05:05:13;;;;;;;4.72;3.00;;;;;;;;;;6210348;28;20047;-67
2021/05/30 05:08:14;;;;;;;4.60;2.95;;;;;;;;;;6216194;28;20073;-69
2021/05/30 05:11:16;;;;;;;3.67;2.53;;;;;;;;;;6212695;28;20157;-68
2021/05/30 05:14:17;;;;;;;2.83;2.50;;;;;;;;;;6218363;28;20042;-66
2021/05/30 05:17:18;;;;;;;3.90;2.42;;;;;;;;;;6212606;28;20488;-66
2021/05/30 05:20:19;;;;;;;5.05;3.10;;;;;;;;;;6219673;28;20145;-67
2021/05/30 05:23:22;;;;;;;5.13;2.70;;;;;;;;;;6210144;28;20105;-67
2021/05/30 05:26:24;;;;;;;4.47;2.60;;;;;;;;;;6192276;28;20173;-70
2021/05/30 05:29:25;;;;;;;3.78;2.28;;;;;;;;;;6181790;28;20125;-73
2021/05/30 05:32:26;;;;;;;2.55;2.15;;;;;;;;;;6191830;28;20141;-67
2021/05/30 05:35:27;;;;;;;3.13;2.30;;;;;;;;;;6176153;28;20070;-67
2021/05/30 05:38:28;;;;;;;3.65;2.47;;;;;;;;;;6201799;28;20043;-65
2021/05/30 05:41:30;;;;;;;3.65;2.05;;;;;;;;;;6212881;28;20149;-66
2021/05/30 05:44:31;;;;;;;2.42;2.08;;;;;;;;;;6208488;28;20078;-68
2021/05/30 05:47:33;;;;;;;4.35;2.65;;;;;;;;;;6212128;28;20132;-67
2021/05/30 05:50:34;;;;;;;2.50;1.90;;;;;;;;;;6209408;28;20129;-67
2021/05/30 05:53:35;;;;;;;2.63;2.17;;;;;;;;;;6211862;28;20133;-65
2021/05/30 05:56:37;;;;;;;5.05;2.30;;;;;;;;;;6215699;28;20053;-65
2021/05/30 05:59:38;;;;;;;1.90;1.70;;;;;;;;;;6216312;28;20145;-66
2021/05/30 06:02:39;;;;;;;2.92;1.85;;;;;;;;;;6207759;28;20750;-69
2021/05/30 06:05:40;;;;;;;4.55;2.00;;;;;;;;;;6214195;28;20046;-65
2021/05/30 06:08:41;;;;;;;2.70;1.88;;;;;;;;;;6206439;28;20131;-73
2021/05/30 06:11:44;;;;;;;2.22;1.80;;;;;;;;;;6213742;28;20125;-67
2021/05/30 06:14:46;;;;;;;2.65;1.60;;;;;;;;;;6199947;28;20066;-66
2021/05/30 06:17:51;;;;;;;2.63;1.83;;;;;;;;;;6210057;28;20506;-67
2021/05/30 06:20:52;;;;;;;3.08;2.03;;;;;;;;;;6211305;28;20085;-66
2021/05/30 06:23:53;;;;;;;2.88;1.80;;;;;;;;;;6208792;28;20054;-72
2021/05/30 06:26:56;;;;;;;2.20;1.60;;;;;;;;;;6210431;28;20623;-66
2021/05/30 06:29:57;;;;;;;1.90;1.40;;;;;;;;;;6210020;28;20193;-66
2021/05/30 06:32:58;;;;;;;7.72;1.70;;;;;;;;;;6213168;28;20200;-67
2021/05/30 06:35:59;;;;;;;2.40;1.52;;;;;;;;;;6202791;28;20456;-71
2021/05/30 06:39:00;;;;;;;3.55;1.80;;;;;;;;;;6213563;28;20081;-67
2021/05/30 06:42:02;;;;;;;2.75;1.60;;;;;;;;;;6215968;28;20445;-69
2021/05/30 06:45:04;;;;;;;2.35;1.55;;;;;;;;;;6212706;28;20082;-67
2021/05/30 06:48:06;;;;;;;4.68;1.80;;;;;;;;;;6201572;28;20051;-66
2021/05/30 06:51:13;;;;;;;2.28;1.60;;;;;;;;;;6214445;28;20065;-69
2021/05/30 06:54:16;;;;;;;3.60;1.75;;;;;;;;;;6212141;28;20071;-66
2021/05/30 06:57:18;;;;;;;3.28;1.55;;;;;;;;;;6215995;28;20045;-67
2021/05/30 07:00:20;;;;;;;1.92;1.42;;;;;;;;;;6211107;28;20100;-71
2021/05/30 07:03:21;;;;;;;2.55;1.65;;;;;;;;;;6214067;28;20157;-70
2021/05/30 07:06:22;;;;;;;4.55;1.60;;;;;;;;;;6209511;28;20104;-73
2021/05/30 07:09:23;;;;;;;3.58;1.65;;;;;;;;;;6218094;28;20046;-69
2021/05/30 07:12:25;;;;;;;2.72;1.38;;;;;;;;;;6213676;28;20127;-67
2021/05/30 07:15:27;;;;;;;2.97;1.45;;;;;;;;;;6213471;28;20099;-69
2021/05/30 07:18:28;;;;;;;3.25;1.50;;;;;;;;;;6217966;28;20479;-66
2021/05/30 07:21:29;;;;;;;5.72;1.25;;;;;;;;;;6200249;28;20538;-69
2021/05/30 07:24:30;;;;;;;4.10;1.95;;;;;;;;;;6212157;28;20144;-72
2021/05/30 07:27:32;;;;;;;3.20;1.77;;;;;;;;;;6211171;28;20136;-73
2021/05/30 07:30:33;;;;;;;5.10;1.45;;;;;;;;;;6209134;28;20071;-68
2021/05/30 07:33:35;;;;;;;2.40;1.40;;;;;;;;;;6210143;28;20185;-67
2021/05/30 07:36:36;;;;;;;3.15;1.40;;;;;;;;;;6213634;28;20635;-73
2021/05/30 07:39:37;;;;;;;4.82;1.48;;;;;;;;;;6200250;28;20698;-67
2021/05/30 07:42:39;;;;;;;4.30;1.67;;;;;;;;;;6209004;28;21020;-66
2021/05/30 07:45:40;;;;;;;5.18;1.52;;;;;;;;;;6207295;28;20144;-67
2021/05/30 07:48:41;;;;;;;1.83;1.50;;;;;;;;;;6210698;28;20164;-66
2021/05/30 07:51:42;;;;;;;3.22;1.70;;;;;;;;;;6217211;28;20148;-67
2021/05/30 07:54:43;;;;;;;2.25;1.30;;;;;;;;;;6213519;28;20048;-66
2021/05/30 07:57:46;;;;;;;4.90;1.40;;;;;;;;;;6206793;28;20052;-67
2021/05/30 08:00:48;;;;;;;4.60;1.40;;;;;;;;;;6208444;28;20045;-67
2021/05/30 08:03:49;;;;;;;2.45;1.52;;;;;;;;;;6191857;28;20509;-74
2021/05/30 08:06:51;;;;;;;3.08;1.35;;;;;;;;;;6212908;28;20075;-68
2021/05/30 08:09:52;;;;;;;1.80;1.40;;;;;;;;;;6215022;28;20124;-73
2021/05/30 08:12:54;;;;;;;2.65;1.45;;;;;;;;;;6209087;28;20038;-72
2021/05/30 08:15:55;;;;;;;2.15;1.50;;;;;;;;;;6212185;28;20115;-67
2021/05/30 08:18:56;;;;;;;4.10;1.40;;;;;;;;;;6209305;28;20117;-66
2021/05/30 08:21:57;;;;;;;4.80;1.60;;;;;;;;;;6205967;28;20150;-74
2021/05/30 08:24:58;;;;;;;2.08;1.65;;;;;;;;;;6202679;28;20812;-72
2021/05/30 08:28:00;;;;;;;2.00;1.48;;;;;;;;;;6203426;28;20142;-67
2021/05/30 08:31:02;;;;;;;2.97;2.03;;;;;;;;;;6208671;28;20129;-69
2021/05/30 08:34:03;;;;;;;6.43;1.38;;;;;;;;;;6206782;28;20050;-67
2021/05/30 08:37:05;;;;;;;2.78;1.52;;;;;;;;;;6210960;28;20048;-72
2021/05/30 08:40:07;;;;;;;2.28;1.60;;;;;;;;;;6204321;28;20407;-67
2021/05/30 08:43:11;;;;;;;2.70;1.33;;;;;;;;;;6199406;28;20054;-66
2021/05/30 08:46:12;;;;;;;3.45;1.48;;;;;;;;;;6208695;28;20145;-73
2021/05/30 08:49:14;;;;;;;6.15;1.58;;;;;;;;;;6210060;28;20065;-67
2021/05/30 08:52:15;;;;;;;2.10;1.48;;;;;;;;;;6211158;28;20129;-70
2021/05/30 08:55:16;;;;;;;2.17;1.40;;;;;;;;;;6210780;28;20573;-68
2021/05/30 08:58:18;;;;;;;1.90;1.50;;;;;;;;;;6209767;28;20088;-68
2021/05/30 09:01:21;;;;;;;7.18;1.73;;;;;;;;;;6202207;28;20198;-69
2021/05/30 09:04:33;;;;;;;1.35;1.10;;;;;;;;;;6206347;28;20259;-65
2021/05/30 09:07:39;;;;;;;2.08;1.10;;;;;;;;;;6213687;28;20497;-66
2021/05/30 09:10:52;;;;;;;1.85;1.40;;;;;;;;;;6210868;28;20062;-70
2021/05/30 09:13:55;;;;;;;2.60;1.10;;;;;;;;;;6196072;28;20163;-66
2021/05/30 09:16:59;;;;;;;3.88;1.20;;;;;;;;;;6195413;28;20051;-66
2021/05/30 09:20:01;;;;;;;3.20;1.75;;;;;;;;;;6199339;28;20046;-66
2021/05/30 09:23:03;;;;;;;5.00;1.80;;;;;;;;;;6208614;28;20053;-72
2021/05/30 09:26:08;;;;;;;1.88;1.40;;;;;;;;;;6212255;28;20161;-67
2021/05/30 09:29:12;;;;;;;3.67;1.60;;;;;;;;;;6210348;28;20600;-72
2021/05/30 09:32:13;;;;;;;1.42;1.30;;;;;;;;;;6210631;28;20122;-68
2021/05/30 09:35:14;;;;;;;1.75;1.20;;;;;;;;;;6214941;28;20153;-68
2021/05/30 09:38:17;;;;;;;3.45;1.95;;;;;;;;;;6203533;28;20184;-67
2021/05/30 09:41:18;;;;;;;4.60;1.70;;;;;;;;;;6210544;28;20551;-65
2021/05/30 09:44:30;;;;;;;2.90;1.58;;;;;;;;;;6211485;28;20133;-67
2021/05/30 09:47:32;;;;;;;2.10;1.75;;;;;;;;;;6208183;28;20054;-66
2021/05/30 09:50:33;;;;;;;1.60;1.40;;;;;;;;;;6190465;28;20047;-68
2021/05/30 09:53:51;;;;;;;2.70;1.55;;;;;;;;;;6188761;28;20042;-66
2021/05/30 09:56:53;;;;;;;2.25;1.35;;;;;;;;;;6198966;28;20041;-66
2021/05/30 09:59:55;;;;;;;6.97;1.83;;;;;;;;;;6189276;28;20042;-66
2021/05/30 10:02:56;;;;;;;3.08;2.17;;;;;;;;;;6191257;28;20488;-66
2021/05/30 10:06:00;;;;;;;3.70;1.85;;;;;;;;;;6190181;28;20149;-67
2021/05/30 10:09:01;;;;;;;2.25;1.52;;;;;;;;;;6204192;28;20527;-68
2021/05/30 10:12:04;;;;;;;2.17;1.30;;;;;;;;;;6212512;28;20709;-66
2021/05/30 10:15:07;;;;;;;4.40;1.60;;;;;;;;;;6209489;28;20081;-66
2021/05/30 10:18:11;;;;;;;2.05;1.55;;;;;;;;;;6207301;28;20505;-67
2021/05/30 10:21:15;;;;;;;2.08;1.77;;;;;;;;;;6189079;28;20058;-69
2021/05/30 10:24:17;;;;;;;2.70;1.92;;;;;;;;;;6206495;28;20097;-68
2021/05/30 10:27:23;;;;;;;3.17;1.80;;;;;;;;;;6211359;28;20141;-66
2021/05/30 10:30:25;;;;;;;4.03;1.90;;;;;;;;;;6217030;28;20058;-68
2021/05/30 10:33:27;;;;;;;2.17;1.83;;;;;;;;;;6220883;28;20053;-67
2021/05/30 10:36:28;;;;;;;2.30;1.67;;;;;;;;;;6214811;28;20452;-67
2021/05/30 10:39:34;;;;;;;3.83;1.70;;;;;;;;;;6214774;28;20184;-66
2021/05/30 10:42:35;;;;;;;2.92;1.60;;;;;;;;;;6214960;28;20527;-67
2021/05/30 10:45:38;;;;;;;2.88;1.70;;;;;;;;;;6215848;28;20076;-66
2021/05/30 10:48:40;;;;;;;8.20;1.73;;;;;;;;;;6216921;28;20133;-66
2021/05/30 10:51:45;;;;;;;3.40;1.50;;;;;;;;;;6216009;28;20049;-73
2021/05/30 10:54:46;;;;;;;4.32;2.08;;;;;;;;;;6217672;28;20485;-66
2021/05/30 10:57:48;;;;;;;1.60;1.40;;;;;;;;;;6214405;28;20084;-66
2021/05/30 11:00:51;;;;;;;3.30;1.40;;;;;;;;;;6200953;28;20154;-68
2021/05/30 11:03:52;;;;;;;3.85;1.70;;;;;;;;;;6199050;28;20584;-66
2021/05/30 11:06:54;;;;;;;4.38;1.50;;;;;;;;;;6215775;28;20521;-67
2021/05/30 11:10:18;;;;;;;2.38;1.80;;;;;;;;;;6210542;28;20104;-68
2021/05/30 11:13:19;;;;;;;3.63;2.00;;;;;;;;;;6206905;28;20060;-67
2021/05/30 11:16:22;;;;;;;4.90;1.90;;;;;;;;;;6208699;28;20065;-67
2021/05/30 11:19:23;;;;;;;3.03;1.85;;;;;;;;;;6210487;28;20133;-67
2021/05/30 11:22:24;;;;;;;3.03;1.42;;;;;;;;;;6204550;28;20038;-74
2021/05/30 11:25:31;;;;;;;1.70;1.60;;;;;;;;;;6208946;28;20134;-69
2021/05/30 11:28:32;;;;;;;2.20;1.80;;;;;;;;;;6196398;28;20405;-70
2021/05/30 11:31:34;;;;;;;3.30;1.58;;;;;;;;;;6173314;28;20496;-69
2021/05/30 11:34:35;;;;;;;4.40;1.50;;;;;;;;;;6197830;28;20053;-68
2021/05/30 11:37:36;;;;;;;1.40;1.30;;;;;;;;;;6198118;28;20050;-73
2021/05/30 11:40:39;;;;;;;1.90;1.52;;;;;;;;;;6185652;28;20042;-67
2021/05/30 11:43:40;;;;;;;;;;;;;;;;;;6206348;28;20109;-66
2021/05/30 11:46:47;;;;;;;1.90;1.48;;;;;;;;;;6214278;28;19925;-69
2021/05/30 11:49:48;;;;;;;1.63;1.50;;;;;;;;;;6220124;28;20045;-66
2021/05/30 11:52:49;;;;;;;2.58;1.52;;;;;;;;;;6208153;28;20046;-67
2021/05/30 11:55:50;;;;;;;4.00;1.70;;;;;;;;;;6202415;28;20046;-67
2021/05/30 11:58:51;;;;;;;2.03;1.83;;;;;;;;;;6213214;28;20042;-65
2021/05/30 12:01:53;;;;;;;1.92;1.75;;;;;;;;;;6208720;28;20143;-66
2021/05/30 12:04:58;;;;;;;1.58;1.38;;;;;;;;;;6211340;28;20081;-68
2021/05/30 12:07:59;;;;;;;2.05;1.70;;;;;;;;;;6212110;28;20113;-71
2021/05/30 12:11:02;;;;;;;1.42;1.30;;;;;;;;;;6213198;28;20549;-67
2021/05/30 12:14:03;;;;;;;2.13;1.60;;;;;;;;;;6214194;28;20179;-69
2021/05/30 12:17:11;;;;;;;2.75;1.50;;;;;;;;;;6212094;28;20046;-71
2021/05/30 12:20:19;;;;;;;2.05;1.50;;;;;;;;;;6190898;28;20483;-67
2021/05/30 12:23:21;;;;;;;4.22;1.50;;;;;;;;;;6188095;28;20084;-67
2021/05/30 12:26:23;;;;;;;2.65;1.45;;;;;;;;;;6202712;28;20042;-69
2021/05/30 12:29:25;;;;;;;1.77;1.08;;;;;;;;;;6208195;28;20174;-72
2021/05/30 12:32:27;;;;;;;2.20;1.20;;;;;;;;;;6209155;28;20061;-68
2021/05/30 12:35:58;;;;;;;1.63;1.50;;;;;;;;;;6208350;28;20564;-66
2021/05/30 12:39:03;;;;;;;2.67;1.40;;;;;;;;;;6126253;28;20047;-67
2021/05/30 12:42:06;;;;;;;1.50;1.20;;;;;;;;;;6204388;28;20542;-66
2021/05/30 12:45:10;;;;;;;2.80;1.30;;;;;;;;;;6205945;28;20083;-72
2021/05/30 12:48:12;;;;;;;2.15;1.35;;;;;;;;;;6204298;28;20054;-73
2021/05/30 12:51:18;;;;;;;1.98;1.40;;;;;;;;;;6212541;28;20129;-69
2021/05/30 12:54:21;;;;;;;2.13;1.27;;;;;;;;;;6210750;28;20042;-67
2021/05/30 12:57:33;;;;;;;2.28;1.45;;;;;;;;;;6209709;28;20132;-67
2021/05/30 13:00:36;;;;;;;2.47;1.30;;;;;;;;;;6219889;28;20050;-67
2021/05/30 13:03:38;;;;;;;1.30;1.17;;;;;;;;;;6225968;28;20444;-69
2021/05/30 13:06:52;;;;;;;1.30;1.00;;;;;;;;;;6223722;28;20074;-69
2021/05/30 13:09:55;;;;;;;1.92;1.40;;;;;;;;;;6226867;28;20041;-66
2021/05/30 13:12:56;;;;;;;1.67;1.08;;;;;;;;;;6228344;28;20037;-69
2021/05/30 13:15:59;;;;;;;2.63;1.20;;;;;;;;;;6224546;28;20132;-67
2021/05/30 13:19:01;;;;;;;2.05;1.17;;;;;;;;;;6222456;28;20045;-67
2021/05/30 13:22:04;;;;;;;1.85;1.42;;;;;;;;;;6223423;28;20547;-72
2021/05/30 13:25:06;;;;;;;1.63;1.42;;;;;;;;;;6218137;28;21137;-66
2021/05/30 13:28:22;;;;;;;3.40;1.30;;;;;;;;;;6198033;28;20526;-70
2021/05/30 13:31:23;;;;;;;2.65;1.30;;;;;;;;;;6197708;28;20062;-67
2021/05/30 13:34:25;;;;;;;1.73;1.10;;;;;;;;;;6195133;28;20054;-69
2021/05/30 13:37:26;;;;;;;1.98;1.20;;;;;;;;;;6184449;28;21777;-66
2021/05/30 13:40:35;;;;;;;1.48;1.00;;;;;;;;;;6214203;28;20041;-67
2021/05/30 13:43:36;;;;;;;1.45;1.10;;;;;;;;;;6212447;28;20094;-67
2021/05/30 13:46:37;;;;;;;2.33;1.42;;;;;;;;;;6216209;28;20061;-67
2021/05/30 13:49:39;;;;;;;2.45;1.60;;;;;;;;;;6217485;28;20054;-68
2021/05/30 13:52:40;;;;;;;1.52;1.17;;;;;;;;;;6222524;28;20129;-74
2021/05/30 13:55:41;;;;;;;2.85;1.20;;;;;;;;;;6219700;28;20054;-71
2021/05/30 13:58:43;;;;;;;2.88;1.30;;;;;;;;;;6223283;28;20177;-71
2021/05/30 14:01:44;;;;;;;1.40;1.10;;;;;;;;;;6221331;28;20137;-66
2021/05/30 14:04:46;;;;;;;2.70;1.40;;;;;;;;;;6214067;28;20148;-65
2021/05/30 14:07:47;;;;;;;1.27;1.17;;;;;;;;;;6216533;28;20469;-66
2021/05/30 14:10:49;;;;;;;2.72;1.02;;;;;;;;;;6218487;28;20144;-68
2021/05/30 14:13:50;;;;;;;1.73;1.30;;;;;;;;;;6212758;28;20043;-66
2021/05/30 14:16:51;;;;;;;3.53;1.30;;;;;;;;;;6213842;28;20132;-65
2021/05/30 14:19:52;;;;;;;1.65;1.23;;;;;;;;;;6217007;28;20046;-67
2021/05/30 14:22:54;;;;;;;3.08;1.52;;;;;;;;;;6207711;28;20161;-67
2021/05/30 14:25:55;;;;;;;1.48;1.30;;;;;;;;;;6210095;28;20069;-66
2021/05/30 14:28:56;;;;;;;3.30;1.55;;;;;;;;;;6208700;28;20180;-66
2021/05/30 14:31:57;;;;;;;2.50;1.00;;;;;;;;;;6205880;28;20073;-67
2021/05/30 14:35:02;;;;;;;5.65;1.17;;;;;;;;;;6212810;28;20054;-65
2021/05/30 14:38:03;;;;;;;4.15;1.40;;;;;;;;;;6213825;28;20490;-68
2021/05/30 14:41:04;;;;;;;2.47;1.30;;;;;;;;;;6195398;28;20053;-68
2021/05/30 14:44:05;;;;;;;2.20;1.30;;;;;;;;;;6209368;28;20108;-65
2021/05/30 14:47:06;;;;;;;4.35;1.98;;;;;;;;;;6228423;28;20185;-65
2021/05/30 14:50:09;;;;;;;3.53;1.23;;;;;;;;;;6207096;28;20060;-66
2021/05/30 14:53:10;;;;;;;4.90;1.30;;;;;;;;;;6213974;28;20129;-70
2021/05/30 14:56:14;;;;;;;2.03;1.50;;;;;;;;;;6205891;28;20545;-68
2021/05/30 14:59:15;;;;;;;2.00;1.33;;;;;;;;;;6213274;28;21210;-64
2021/05/30 15:02:16;;;;;;;4.50;1.30;;;;;;;;;;6215318;28;20058;-68
2021/05/30 15:05:18;;;;;;;3.38;1.92;;;;;;;;;;6203696;28;20596;-65
2021/05/30 15:08:19;;;;;;;3.00;1.40;;;;;;;;;;6188038;28;20077;-65
2021/05/30 15:11:20;;;;;;;2.83;1.58;;;;;;;;;;6203380;28;20051;-68
2021/05/30 15:14:21;;;;;;;2.70;1.40;;;;;;;;;;6209612;28;20056;-68
2021/05/30 15:17:22;;;;;;;1.55;1.20;;;;;;;;;;6213448;28;20464;-70
2021/05/30 15:20:25;;;;;;;4.63;1.40;;;;;;;;;;6207295;28;20499;-66
2021/05/30 15:23:26;;;;;;;2.23;1.20;;;;;;;;;;6199608;28;20430;-66
2021/05/30 15:26:27;;;;;;;2.00;1.50;;;;;;;;;;6197055;28;20140;-66
2021/05/30 15:29:28;;;;;;;2.22;1.45;;;;;;;;;;6207206;28;20140;-69
2021/05/30 15:32:29;;;;;;;2.03;1.17;;;;;;;;;;6208280;28;20077;-65
2021/05/30 15:35:31;;;;;;;3.03;1.40;;;;;;;;;;6205041;28;20220;-68
2021/05/30 15:38:33;;;;;;;3.63;1.25;;;;;;;;;;6212063;28;20124;-71
2021/05/30 15:41:34;;;;;;;4.28;1.20;;;;;;;;;;6206288;28;20074;-66
2021/05/30 15:44:35;;;;;;;6.88;1.88;;;;;;;;;;6209910;28;20487;-65
2021/05/30 15:47:37;;;;;;;3.00;1.25;;;;;;;;;;6197953;28;20137;-66
2021/05/30 15:50:38;;;;;;;3.42;1.92;;;;;;;;;;6207498;28;20175;-66
2021/05/30 15:53:40;;;;;;;2.20;1.50;;;;;;;;;;6205043;28;20100;-65
2021/05/30 15:56:42;;;;;;;5.80;1.80;;;;;;;;;;6210405;28;20093;-65
2021/05/30 15:59:43;;;;;;;2.22;1.50;;;;;;;;;;6195546;28;20492;-67
2021/05/30 16:02:45;;;;;;;3.33;1.65;;;;;;;;;;6202570;28;20062;-65
2021/05/30 16:05:47;;;;;;;5.10;1.52;;;;;;;;;;6198298;28;20054;-67
2021/05/30 16:08:49;;;;;;;5.60;1.42;;;;;;;;;;6212560;28;20478;-67
2021/05/30 16:11:50;;;;;;;2.28;1.40;;;;;;;;;;6203333;28;20069;-67
2021/05/30 16:14:51;;;;;;;3.20;1.70;;;;;;;;;;6201502;28;20137;-67
2021/05/30 16:17:52;;;;;;;4.32;1.90;;;;;;;;;;6202621;28;20123;-66
2021/05/30 16:20:54;;;;;;;3.35;1.85;;;;;;;;;;6208255;28;20595;-66
2021/05/30 16:23:56;;;;;;;2.17;1.80;;;;;;;;;;6223768;28;20042;-66
2021/05/30 16:26:57;;;;;;;1.83;1.63;;;;;;;;;;6201735;28;20085;-65
2021/05/30 16:29:58;;;;;;;2.25;1.40;;;;;;;;;;6208086;28;20048;-67
2021/05/30 16:32:59;;;;;;;2.08;1.45;;;;;;;;;;6204255;28;20053;-65
2021/05/30 16:36:01;;;;;;;2.67;1.60;;;;;;;;;;6205772;28;20073;-68
2021/05/30 16:39:03;;;;;;;5.57;2.00;;;;;;;;;;6204540;28;20144;-69
2021/05/30 16:42:06;;;;;;;2.37;1.50;;;;;;;;;;6200830;28;20084;-69
2021/05/30 16:45:08;;;;;;;4.07;1.50;;;;;;;;;;6209275;28;20054;-72
2021/05/30 16:48:10;;;;;;;2.80;1.30;;;;;;;;;;6202282;28;20186;-67
2021/05/30 16:51:12;;;;;;;1.70;1.50;;;;;;;;;;6207472;28;20116;-69
2021/05/30 16:54:18;;;;;;;2.70;1.73;;;;;;;;;;6207195;28;20521;-69
2021/05/30 16:57:19;;;;;;;3.17;1.60;;;;;;;;;;6209697;28;20133;-65
2021/05/30 17:00:20;;;;;;;3.45;1.67;;;;;;;;;;6209072;28;20046;-67
2021/05/30 17:03:23;;;;;;;2.08;1.67;;;;;;;;;;6207523;28;20133;-65
2021/05/30 17:06:25;;;;;;;2.90;1.65;;;;;;;;;;6205395;28;20048;-66
2021/05/30 17:09:26;;;;;;;2.65;1.58;;;;;;;;;;6208937;28;20177;-69
2021/05/30 17:12:27;;;;;;;4.50;1.50;;;;;;;;;;6201540;28;20042;-67
2021/05/30 17:15:35;;;;;;;3.47;1.73;;;;;;;;;;6201425;28;20049;-68
2021/05/30 17:18:36;;;;;;;3.08;1.60;;;;;;;;;;6207207;28;20093;-67
2021/05/30 17:21:39;;;;;;;3.95;1.50;;;;;;;;;;6203195;28;20474;-66
2021/05/30 17:24:42;;;;;;;2.40;1.50;;;;;;;;;;6206850;28;20144;-66
2021/05/30 17:27:43;;;;;;;3.08;1.30;;;;;;;;;;6200681;28;20133;-67
2021/05/30 17:30:44;;;;;;;2.70;1.40;;;;;;;;;;6205780;28;20076;-66
2021/05/30 17:33:47;;;;;;;2.83;2.10;;;;;;;;;;6204327;28;20058;-65
2021/05/30 17:36:51;;;;;;;2.67;1.40;;;;;;;;;;6203044;28;20049;-66
2021/05/30 17:39:52;;;;;;;2.70;1.80;;;;;;;;;;6207111;28;20054;-68
2021/05/30 17:42:55;;;;;;;2.10;1.50;;;;;;;;;;6207111;28;20050;-66
2021/05/30 17:45:56;;;;;;;3.15;1.40;;;;;;;;;;6207134;28;20066;-66
2021/05/30 17:48:57;;;;;;;2.17;1.30;;;;;;;;;;6206053;28;20046;-66
2021/05/30 17:51:59;;;;;;;2.00;1.35;;;;;;;;;;6214507;28;20133;-66
2021/05/30 17:55:01;;;;;;;1.98;1.38;;;;;;;;;;6221113;28;20565;-65
2021/05/30 17:58:02;;;;;;;2.40;1.35;;;;;;;;;;6209684;28;20168;-67
2021/05/30 18:01:04;;;;;;;2.08;1.40;;;;;;;;;;6208626;28;20084;-66
2021/05/30 18:04:05;;;;;;;2.97;1.60;;;;;;;;;;6207335;28;20081;-65
2021/05/30 18:07:09;;;;;;;3.88;1.38;;;;;;;;;;6207859;28;20081;-67
2021/05/30 18:10:11;;;;;;;2.00;1.42;;;;;;;;;;6206364;28;20051;-66
2021/05/30 18:13:13;;;;;;;3.20;1.52;;;;;;;;;;6209046;28;20140;-71